Time;durP1;ratioP1;P1;durP2;ratioP2;P2;SDS_P1;SDS_P2;PMS_P1;PMS_P2;Temp;Humidity;BMP_temperature;BMP_pressure;BME280_temperature;BME280_humidity;BME280_pressure;Samples;Min_cycle;Max_cycle;Signal;HPM_P1;HPM_P2
2023/05/12 00:02:04;;;;;;;;;;;;;;;11.89;nan;100291.81;5013096;28;19918;-89
2023/05/12 00:04:30;;;;;;;;;;;;;;;11.90;nan;100287.34;5009711;28;19929;-89
2023/05/12 00:06:55;;;;;;;;;;;;;;;11.88;nan;100276.06;5010732;28;19922;-89
2023/05/12 00:09:20;;;;;;;;;;;;;;;11.87;nan;100283.19;5028204;28;19932;-88
2023/05/12 00:11:47;;;;;;;;;;;;;;;11.87;nan;100285.03;5011209;28;19934;-88
2023/05/12 00:14:12;;;;;;;;;;;;;;;11.86;nan;100280.66;5007465;28;19926;-88
2023/05/12 00:16:37;;;;;;;;;;;;;;;11.86;nan;100280.66;5008841;28;19940;-89
2023/05/12 00:19:02;;;;;;;;;;;;;;;11.84;nan;100280.81;5012159;28;19971;-89
2023/05/12 00:21:28;;;;;;;;;;;;;;;11.83;nan;100279.19;5013775;28;19926;-89
2023/05/12 00:23:53;;;;;;;;;;;;;;;11.83;nan;100283.66;5012594;28;19940;-88
2023/05/12 00:26:18;;;;;;;;;;;;;;;11.83;nan;100279.19;5013049;28;19937;-89
2023/05/12 00:28:44;;;;;;;;;;;;;;;11.82;nan;100281.97;5012430;28;19914;-89
2023/05/12 00:31:11;;;;;;;;;;;;;;;11.81;nan;100281.16;5012719;28;20198;-89
2023/05/12 00:33:36;;;;;;;;;;;;;;;11.82;nan;100276.69;5014085;28;19940;-88
2023/05/12 00:36:02;;;;;;;;;;;;;;;11.82;nan;100280.19;5012681;28;19945;-89
2023/05/12 00:38:28;;;;;;;;;;;;;;;11.82;nan;100277.53;5013089;28;19913;-89
2023/05/12 00:40:54;;;;;;;;;;;;;;;11.81;nan;100275.03;5012868;28;19973;-89
2023/05/12 00:43:20;;;;;;;;;;;;;;;11.81;nan;100267.09;5011954;28;19932;-88
2023/05/12 00:45:45;;;;;;;;;;;;;;;11.82;nan;100272.25;5011609;28;19914;-89
2023/05/12 00:48:10;;;;;;;;;;;;;;;11.86;nan;100264.78;5012776;28;19933;-89
2023/05/12 00:50:36;;;;;;;;;;;;;;;11.89;nan;100261.81;5012828;28;19937;-89
2023/05/12 00:53:01;;;;;;;;;;;;;;;11.90;nan;100264.31;5012315;28;19926;-88
2023/05/12 00:55:30;;;;;;;;;;;;;;;11.92;nan;100266.81;5011809;28;20136;-88
2023/05/12 00:57:55;;;;;;;;;;;;;;;11.90;nan;100263.47;5013749;28;19926;-89
2023/05/12 01:00:21;;;;;;;;;;;;;;;11.88;nan;100260.16;5006811;28;19967;-88
2023/05/12 01:02:46;;;;;;;;;;;;;;;11.87;nan;100259.34;5009443;28;19920;-88
2023/05/12 01:05:11;;;;;;;;;;;;;;;11.88;nan;100257.53;5007049;28;19921;-88
2023/05/12 01:07:37;;;;;;;;;;;;;;;11.88;nan;100255.69;4995581;28;19925;-87
2023/05/12 01:10:03;;;;;;;;;;;;;;;11.89;nan;100260.00;4988417;28;19921;-86
2023/05/12 01:12:28;;;;;;;;;;;;;;;11.88;nan;100260.16;4987565;28;19929;-86
2023/05/12 01:14:54;;;;;;;;;;;;;;;11.85;nan;100252.53;4985866;28;19955;-86
2023/05/12 01:17:21;;;;;;;;;;;;;;;11.86;nan;100256.81;4987860;28;20408;-86
2023/05/12 01:19:53;;;;;;;;;;;;;;;11.86;nan;100252.34;4987598;28;19965;-86
2023/05/12 01:22:18;;;;;;;;;;;;;;;11.84;nan;100251.69;4984766;28;19926;-86
2023/05/12 01:24:45;;;;;;;;;;;;;;;11.86;nan;100254.19;4988278;28;19983;-86
2023/05/12 01:27:11;;;;;;;;;;;;;;;11.86;nan;100251.53;4987575;28;20266;-87
2023/05/12 01:29:37;;;;;;;;;;;;;;;11.84;nan;100250.84;4986843;28;19928;-86
2023/05/12 01:32:02;;;;;;;;;;;;;;;11.81;nan;100246.72;4987983;28;19932;-87
2023/05/12 01:34:27;;;;;;;;;;;;;;;11.80;nan;100257.50;4987505;28;19922;-86
2023/05/12 01:36:53;;;;;;;;;;;;;;;11.81;nan;100249.38;4969723;28;20419;-86
2023/05/12 01:39:18;;;;;;;;;;;;;;;11.84;nan;100256.16;4970767;28;19922;-86
2023/05/12 01:41:43;;;;;;;;;;;;;;;11.85;nan;100258.66;4987601;28;19929;-88
2023/05/12 01:44:08;;;;;;;;;;;;;;;11.84;nan;100256.97;4969921;28;19926;-87
2023/05/12 01:46:33;;;;;;;;;;;;;;;11.83;nan;100252.69;4969763;28;19928;-87
2023/05/12 01:49:01;;;;;;;;;;;;;;;11.79;nan;100259.31;4971025;28;20008;-87
2023/05/12 01:51:26;;;;;;;;;;;;;;;11.76;nan;100257.00;4982745;28;19940;-87
2023/05/12 01:53:51;;;;;;;;;;;;;;;11.77;nan;100255.16;5004242;28;20127;-88
2023/05/12 01:56:16;;;;;;;;;;;;;;;11.77;nan;100266.59;5006206;28;19921;-87
2023/05/12 01:58:42;;;;;;;;;;;;;;;11.75;nan;100265.94;5004301;28;19928;-88
2023/05/12 02:01:07;;;;;;;;;;;;;;;11.74;nan;100261.63;4989016;28;19922;-87
2023/05/12 02:03:32;;;;;;;;;;;;;;;11.72;nan;100268.91;4987493;28;19922;-88
2023/05/12 02:05:57;;;;;;;;;;;;;;;11.72;nan;100260.97;4988721;28;19949;-87
2023/05/12 02:08:22;;;;;;;;;;;;;;;11.72;nan;100268.09;4988400;28;19922;-88
2023/05/12 02:10:48;;;;;;;;;;;;;;;11.74;nan;100263.47;4992053;28;19926;-89
2023/05/12 02:13:14;;;;;;;;;;;;;;;11.72;nan;100271.56;4991325;28;19933;-88
2023/05/12 02:15:39;;;;;;;;;;;;;;;11.72;nan;100265.44;5005758;28;19944;-88
2023/05/12 02:18:04;;;;;;;;;;;;;;;11.72;nan;100263.59;4992468;28;19926;-88
2023/05/12 02:20:29;;;;;;;;;;;;;;;11.72;nan;100266.25;4993848;28;20254;-89
2023/05/12 02:22:55;;;;;;;;;;;;;;;11.75;nan;100273.03;4993556;28;19926;-88
2023/05/12 02:25:20;;;;;;;;;;;;;;;11.76;nan;100266.78;5008331;28;19974;-88
2023/05/12 02:27:45;;;;;;;;;;;;;;;11.75;nan;100262.44;4994133;28;19914;-89
2023/05/12 02:30:10;;;;;;;;;;;;;;;11.71;nan;100261.97;4997063;28;19917;-88
2023/05/12 02:32:36;;;;;;;;;;;;;;;11.67;nan;100263.28;5010192;28;19930;-88
2023/05/12 02:35:01;;;;;;;;;;;;;;;11.65;nan;100263.44;5004076;28;20145;-88
2023/05/12 02:37:26;;;;;;;;;;;;;;;11.64;nan;100259.16;5006603;28;19944;-88
2023/05/12 02:39:51;;;;;;;;;;;;;;;11.61;nan;100266.59;5008207;28;19921;-88
2023/05/12 02:42:16;;;;;;;;;;;;;;;11.59;nan;100261.47;5006339;28;19926;-88
2023/05/12 02:44:42;;;;;;;;;;;;;;;11.59;nan;100260.66;5004898;28;20035;-88
2023/05/12 02:47:07;;;;;;;;;;;;;;;11.58;nan;100256.31;5005114;28;19922;-88
2023/05/12 02:49:32;;;;;;;;;;;;;;;11.56;nan;100259.16;5001953;28;19972;-89
2023/05/12 02:51:57;;;;;;;;;;;;;;;11.54;nan;100260.31;5006846;28;19922;-88
2023/05/12 02:54:22;;;;;;;;;;;;;;;11.53;nan;100256.81;5001917;28;19922;-88
2023/05/12 02:56:48;;;;;;;;;;;;;;;11.53;nan;100250.69;5019999;28;19926;-88
2023/05/12 02:59:13;;;;;;;;;;;;;;;11.53;nan;100253.34;5005111;28;20198;-88
2023/05/12 03:01:38;;;;;;;;;;;;;;;11.53;nan;100254.16;4997614;28;19936;-89
2023/05/12 03:04:03;;;;;;;;;;;;;;;11.55;nan;100260.13;5005558;28;20039;-88
2023/05/12 03:06:29;;;;;;;;;;;;;;;11.54;nan;100260.31;5006835;28;19929;-88
2023/05/12 03:08:54;;;;;;;;;;;;;;;11.55;nan;100256.66;5002295;28;20011;-89
2023/05/12 03:11:20;;;;;;;;;;;;;;;11.54;nan;100255.84;5010523;28;19921;-88
2023/05/12 03:13:45;;;;;;;;;;;;;;;11.56;nan;100255.66;5001855;28;19960;-87
2023/05/12 03:16:11;;;;;;;;;;;;;;;11.57;nan;100257.31;5012165;28;19930;-88
2023/05/12 03:18:36;;;;;;;;;;;;;;;11.57;nan;100259.97;5007855;28;19948;-88
2023/05/12 03:21:02;;;;;;;;;;;;;;;11.57;nan;100262.63;5009105;28;19930;-88
2023/05/12 03:23:28;;;;;;;;;;;;;;;11.56;nan;100261.81;5011291;28;19921;-89
2023/05/12 03:25:54;;;;;;;;;;;;;;;11.55;nan;100261.97;5013951;28;19910;-88
2023/05/12 03:28:21;;;;;;;;;;;;;;;11.53;nan;100256.00;5014066;28;19926;-88
2023/05/12 03:30:47;;;;;;;;;;;;;;;11.50;nan;100251.84;5011049;28;19922;-87
2023/05/12 03:33:12;;;;;;;;;;;;;;;11.48;nan;100259.13;5020819;28;19940;-87
2023/05/12 03:35:37;;;;;;;;;;;;;;;11.45;nan;100244.41;5014000;28;19925;-90
2023/05/12 03:38:02;;;;;;;;;;;;;;;11.45;nan;100251.53;4992740;28;19926;-88
2023/05/12 03:40:27;;;;;;;;;;;;;;;11.42;nan;100250.03;5012881;28;19988;-88
2023/05/12 03:42:53;;;;;;;;;;;;;;;11.41;nan;100248.38;5013339;28;19930;-88
2023/05/12 03:45:18;;;;;;;;;;;;;;;11.44;nan;100252.50;5028210;28;19922;-88
2023/05/12 03:47:43;;;;;;;;;;;;;;;11.44;nan;100257.78;5012287;28;19913;-87
2023/05/12 03:50:08;;;;;;;;;;;;;;;11.43;nan;100251.69;5012740;28;19928;-88
2023/05/12 03:52:34;;;;;;;;;;;;;;;11.43;nan;100258.81;5013903;28;19926;-89
2023/05/12 03:54:59;;;;;;;;;;;;;;;11.41;nan;100258.13;5006465;28;19922;-88
2023/05/12 03:57:27;;;;;;;;;;;;;;;11.42;nan;100260.63;5012714;28;19926;-88
2023/05/12 03:59:52;;;;;;;;;;;;;;;11.44;nan;100263.94;4988714;28;19918;-88
2023/05/12 04:02:17;;;;;;;;;;;;;;;11.45;nan;100262.94;4996024;28;20190;-86
2023/05/12 04:04:43;;;;;;;;;;;;;;;11.48;nan;100259.13;4993828;28;19961;-86
2023/05/12 04:07:08;;;;;;;;;;;;;;;11.51;nan;100260.63;4986463;28;20348;-85
2023/05/12 04:09:33;;;;;;;;;;;;;;;11.53;nan;100259.47;4990843;28;19965;-87
2023/05/12 04:11:59;;;;;;;;;;;;;;;11.56;nan;100255.66;4990276;28;20005;-85
2023/05/12 04:14:24;;;;;;;;;;;;;;;11.57;nan;100259.97;4989277;28;20365;-86
2023/05/12 04:16:49;;;;;;;;;;;;;;;11.59;nan;100261.47;4992381;28;19936;-86
2023/05/12 04:19:14;;;;;;;;;;;;;;;11.62;nan;100265.59;4989415;28;19921;-86
2023/05/12 04:21:40;;;;;;;;;;;;;;;11.63;nan;100267.25;4993032;28;19922;-86
2023/05/12 04:24:05;;;;;;;;;;;;;;;11.61;nan;100259.47;4990818;28;19918;-86
2023/05/12 04:26:30;;;;;;;;;;;;;;;11.62;nan;100266.44;4991363;28;19926;-85
2023/05/12 04:28:59;;;;;;;;;;;;;;;11.63;nan;100272.53;4992515;28;20013;-85
2023/05/12 04:31:24;;;;;;;;;;;;;;;11.64;nan;100264.44;4991509;28;20049;-86
2023/05/12 04:33:50;;;;;;;;;;;;;;;11.61;nan;100270.09;4992325;28;20016;-86
2023/05/12 04:36:16;;;;;;;;;;;;;;;11.64;nan;100266.28;4984627;28;19922;-87
2023/05/12 04:38:41;;;;;;;;;;;;;;;11.68;nan;100273.72;4988275;28;20478;-86
2023/05/12 04:41:08;;;;;;;;;;;;;;;11.73;nan;100270.59;4987783;28;20593;-86
2023/05/12 04:43:34;;;;;;;;;;;;;;;11.77;nan;100274.53;4992608;28;19953;-85
2023/05/12 04:46:00;;;;;;;;;;;;;;;11.83;nan;100273.06;4993682;28;19922;-86
2023/05/12 04:48:25;;;;;;;;;;;;;;;11.86;nan;100275.38;4985436;28;19925;-86
2023/05/12 04:50:50;;;;;;;;;;;;;;;11.91;nan;100278.38;4989402;28;19965;-86
2023/05/12 04:53:16;;;;;;;;;;;;;;;11.98;nan;100276.72;4989065;28;20021;-87
2023/05/12 04:55:48;;;;;;;;;;;;;;;12.07;nan;100280.19;4992030;28;19951;-86
2023/05/12 04:58:14;;;;;;;;;;;;;;;12.12;nan;100285.81;4990872;28;20332;-85
2023/05/12 05:00:39;;;;;;;;;;;;;;;12.15;nan;100280.16;4986949;28;19922;-86
2023/05/12 05:03:05;;;;;;;;;;;;;;;12.19;nan;100286.81;4989765;28;19949;-86
2023/05/12 05:05:30;;;;;;;;;;;;;;;12.25;nan;100285.28;5000562;28;19929;-86
2023/05/12 05:07:55;;;;;;;;;;;;;;;12.29;nan;100286.63;4986849;28;19918;-87
2023/05/12 05:10:20;;;;;;;;;;;;;;;12.39;nan;100289.06;4992378;28;19929;-86
2023/05/12 05:12:46;;;;;;;;;;;;;;;12.43;nan;100290.41;4991939;28;19921;-86
2023/05/12 05:15:11;;;;;;;;;;;;;;;12.49;nan;100287.91;4986409;28;19929;-86
2023/05/12 05:17:37;;;;;;;;;;;;;;;12.53;nan;100285.72;4990605;28;19977;-87
2023/05/12 05:20:03;;;;;;;;;;;;;;;12.60;nan;100285.88;4983279;28;19922;-87
2023/05/12 05:22:28;;;;;;;;;;;;;;;12.66;nan;100293.16;4987186;28;19922;-87
2023/05/12 05:24:55;;;;;;;;;;;;;;;12.65;nan;100294.16;4988102;28;19922;-87
2023/05/12 05:27:21;;;;;;;;;;;;;;;12.70;nan;100294.44;4990272;28;19925;-86
2023/05/12 05:29:46;;;;;;;;;;;;;;;12.78;nan;100293.63;4980597;28;19973;-87
2023/05/12 05:32:11;;;;;;;;;;;;;;;12.84;nan;100296.38;4992717;28;19926;-87
2023/05/12 05:34:37;;;;;;;;;;;;;;;12.87;nan;100298.72;4977419;28;19922;-87
2023/05/12 05:37:02;;;;;;;;;;;;;;;12.87;nan;100300.53;4994369;28;19945;-88
2023/05/12 05:39:29;;;;;;;;;;;;;;;12.85;nan;100294.59;4976073;28;19922;-87
2023/05/12 05:41:55;;;;;;;;;;;;;;;12.90;nan;100297.53;4973258;28;20505;-88
2023/05/12 05:44:20;;;;;;;;;;;;;;;13.00;nan;100300.81;4980799;28;19962;-87
2023/05/12 05:46:45;;;;;;;;;;;;;;;13.11;nan;100300.44;4991197;28;19925;-86
2023/05/12 05:49:10;;;;;;;;;;;;;;;13.20;nan;100300.38;4992485;28;19944;-86
2023/05/12 05:51:36;;;;;;;;;;;;;;;13.24;nan;100304.34;4976784;28;19948;-87
2023/05/12 05:54:01;;;;;;;;;;;;;;;13.28;nan;100305.69;4977959;28;19928;-88
2023/05/12 05:56:53;;;;;;;;;;;;;;;13.33;nan;100308.66;4979330;28;19949;-86
2023/05/12 05:59:31;;;;;;;;;;;;;;;;;;;;;
2023/05/12 06:02:05;;;;;;;;;;;;;;;13.28;nan;100309.16;4994602;28;19922;-87
2023/05/12 06:04:31;;;;;;;;;;;;;;;13.28;nan;100314.47;4979521;28;19981;-87
2023/05/12 06:06:56;;;;;;;;;;;;;;;13.40;nan;100309.59;4998325;28;20417;-87
2023/05/12 06:09:21;;;;;;;;;;;;;;;13.45;nan;100307.22;4980049;28;19926;-88
2023/05/12 06:11:47;;;;;;;;;;;;;;;13.34;nan;100315.59;4979751;28;20012;-88
2023/05/12 06:14:12;;;;;;;;;;;;;;;13.45;nan;100317.03;4980930;28;19929;-88
2023/05/12 06:16:38;;;;;;;;;;;;;;;13.42;nan;100320.88;5000073;28;19929;-86
2023/05/12 06:19:03;;;;;;;;;;;;;;;13.44;nan;100323.34;4982585;28;19961;-87
2023/05/12 06:21:31;;;;;;;;;;;;;;;13.41;nan;100326.34;4979418;28;19922;-88
2023/05/12 06:23:56;;;;;;;;;;;;;;;13.56;nan;100329.91;4988322;28;19921;-87
2023/05/12 06:26:21;;;;;;;;;;;;;;;13.54;nan;100326.63;4981909;28;20078;-87
2023/05/12 06:28:47;;;;;;;;;;;;;;;13.43;nan;100335.78;4980133;28;19929;-87
2023/05/12 06:31:12;;;;;;;;;;;;;;;13.44;nan;100328.66;4999608;28;19928;-88
2023/05/12 06:33:37;;;;;;;;;;;;;;;13.46;nan;100332.78;4974479;28;19921;-87
2023/05/12 06:36:03;;;;;;;;;;;;;;;13.42;nan;100331.50;4981069;28;19945;-87
2023/05/12 06:38:28;;;;;;;;;;;;;;;13.30;nan;100331.06;5000157;28;19933;-88
2023/05/12 06:40:57;;;;;;;;;;;;;;;13.26;nan;100331.56;4985094;28;19925;-86
2023/05/12 06:43:22;;;;;;;;;;;;;;;13.27;nan;100339.34;4982538;28;19977;-89
2023/05/12 06:45:47;;;;;;;;;;;;;;;13.30;nan;100341.69;4981928;28;19933;-86
2023/05/12 06:48:13;;;;;;;;;;;;;;;13.38;nan;100338.97;4980441;28;20589;-87
2023/05/12 06:50:38;;;;;;;;;;;;;;;13.31;nan;100340.66;4999066;28;19922;-87
2023/05/12 06:53:05;;;;;;;;;;;;;;;13.27;nan;100343.81;4982474;28;20020;-87
2023/05/12 06:55:30;;;;;;;;;;;;;;;13.28;nan;100349.00;4983809;28;19932;-87
2023/05/12 06:57:55;;;;;;;;;;;;;;;13.15;nan;100344.19;4981651;28;19922;-87
2023/05/12 07:00:24;;;;;;;;;;;;;;;13.30;nan;100343.50;4997257;28;19926;-87
2023/05/12 07:06:05;;;;;;;;;;;;;;;13.24;nan;100342.34;4951799;28;19922;-87
2023/05/12 07:08:31;;;;;;;;;;;;;;;13.37;nan;100347.09;4953765;29;19922;-86
2023/05/12 07:10:58;;;;;;;;;;;;;;;13.51;nan;100345.53;4976090;28;19922;-86
2023/05/12 07:13:23;;;;;;;;;;;;;;;13.49;nan;100344.88;4993658;28;20297;-87
2023/05/12 07:15:49;;;;;;;;;;;;;;;13.63;nan;100345.97;4975532;28;19926;-87
2023/05/12 07:18:17;;;;;;;;;;;;;;;13.68;nan;100348.91;4966349;28;19949;-87
2023/05/12 07:20:48;;;;;;;;;;;;;;;13.73;nan;100346.56;4978183;28;19969;-88
2023/05/12 07:23:14;;;;;;;;;;;;;;;13.77;nan;100348.69;4990516;28;20302;-88
2023/05/12 07:25:42;;;;;;;;;;;;;;;13.73;nan;100349.22;4988606;28;19928;-88
2023/05/12 07:28:08;;;;;;;;;;;;;;;13.74;nan;100343.72;4987752;28;19968;-88
2023/05/12 07:30:33;;;;;;;;;;;;;;;13.71;nan;100348.59;4986565;28;19929;-87
2023/05/12 07:33:14;;;;;;;;;;;;;;;13.60;nan;100352.47;4992217;28;19926;-89
2023/05/12 07:35:39;;;;;;;;;;;;;;;13.67;nan;100353.41;4988947;28;20496;-87
2023/05/12 07:38:05;;;;;;;;;;;;;;;13.70;nan;100361.03;4996907;28;19965;-87
2023/05/12 07:40:33;;;;;;;;;;;;;;;13.80;nan;100358.97;4981790;28;19928;-87
2023/05/12 07:42:58;;;;;;;;;;;;;;;13.90;nan;100353.44;4985619;28;19922;-86
2023/05/12 07:45:24;;;;;;;;;;;;;;;14.01;nan;100350.34;4989564;28;19928;-87
2023/05/12 07:47:49;;;;;;;;;;;;;;;14.14;nan;100344.41;4991560;28;19944;-87
2023/05/12 07:50:15;;;;;;;;;;;;;;;14.12;nan;100343.78;4979776;28;19944;-87
2023/05/12 07:52:47;;;;;;;;;;;;;;;14.34;nan;100339.41;4996335;28;19934;-87
2023/05/12 07:55:21;;;;;;;;;;;;;;;14.54;nan;100339.75;4988813;28;20403;-88
2023/05/12 07:57:49;;;;;;;;;;;;;;;14.71;nan;100348.41;4988890;28;20006;-87
2023/05/12 08:00:14;;;;;;;;;;;;;;;14.89;nan;100347.19;4991814;28;19921;-88
2023/05/12 08:02:51;;;;;;;;;;;;;;;15.08;nan;100344.78;4989275;28;20309;-87
2023/05/12 08:05:17;;;;;;;;;;;;;;;15.24;nan;100345.59;4990430;28;19926;-87
2023/05/12 08:07:42;;;;;;;;;;;;;;;15.32;nan;100344.66;4992466;28;19922;-88
2023/05/12 08:10:37;;;;;;;;;;;;;;;15.30;nan;100350.16;4969788;28;19949;-87
2023/05/12 08:13:27;;;;;;;;;;;;;;;15.22;nan;100351.09;4989091;28;19932;-88
2023/05/12 08:15:52;;;;;;;;;;;;;;;15.06;nan;100346.81;4986711;28;19954;-87
2023/05/12 08:18:17;;;;;;;;;;;;;;;15.03;nan;100352.50;5006990;28;19929;-88
2023/05/12 08:20:43;;;;;;;;;;;;;;;15.12;nan;100349.75;4993028;28;19922;-89
2023/05/12 08:23:17;;;;;;;;;;;;;;;15.16;nan;100351.88;4992338;28;19932;-89
2023/05/12 08:25:43;;;;;;;;;;;;;;;15.23;nan;100349.25;4989389;28;20074;-88
2023/05/12 08:28:09;;;;;;;;;;;;;;;15.32;nan;100348.13;4999511;28;19972;-88
2023/05/12 08:30:34;;;;;;;;;;;;;;;15.41;nan;100351.53;4973440;28;19929;-89
2023/05/12 08:33:05;;;;;;;;;;;;;;;15.43;nan;100355.66;4968574;28;19929;-89
2023/05/12 08:35:31;;;;;;;;;;;;;;;15.36;nan;100349.44;4993747;28;19926;-89
2023/05/12 08:38:00;;;;;;;;;;;;;;;15.35;nan;100344.28;4991597;28;20435;-89
2023/05/12 08:40:33;;;;;;;;;;;;;;;15.36;nan;100352.09;4996078;28;19967;-88
2023/05/12 08:43:05;;;;;;;;;;;;;;;15.44;nan;100351.16;4979783;28;19925;-89
2023/05/12 08:45:30;;;;;;;;;;;;;;;15.39;nan;100350.88;4993069;28;19932;-90
2023/05/12 08:48:04;;;;;;;;;;;;;;;15.50;nan;100353.88;5005692;28;19933;-89
2023/05/12 08:50:30;;;;;;;;;;;;;;;15.61;nan;100357.91;4991332;28;20328;-90
2023/05/12 08:52:58;;;;;;;;;;;;;;;15.63;nan;100358.53;4990723;28;19921;-89
2023/05/12 08:55:25;;;;;;;;;;;;;;;15.62;nan;100356.88;4996377;28;20012;-89
2023/05/12 08:57:50;;;;;;;;;;;;;;;15.56;nan;100364.81;4993696;28;19918;-88
2023/05/12 09:00:17;;;;;;;;;;;;;;;15.52;nan;100364.38;4992921;28;20668;-89
2023/05/12 09:02:45;;;;;;;;;;;;;;;15.39;nan;100358.88;4991585;28;19926;-90
2023/05/12 09:05:11;;;;;;;;;;;;;;;15.40;nan;100363.22;4992835;28;19925;-89
2023/05/12 09:07:38;;;;;;;;;;;;;;;15.43;nan;100358.31;4992276;28;19922;-89
2023/05/12 09:10:05;;;;;;;;;;;;;;;15.60;nan;100360.75;4991786;28;19961;-89
2023/05/12 09:12:33;;;;;;;;;;;;;;;15.85;nan;100364.75;4982230;28;20405;-88
2023/05/12 09:15:01;;;;;;;;;;;;;;;16.00;nan;100369.19;4991298;28;19922;-89
2023/05/12 09:17:30;;;;;;;;;;;;;;;16.17;nan;100359.91;4991625;28;19925;-89
2023/05/12 09:19:55;;;;;;;;;;;;;;;16.17;nan;100362.56;4985815;28;20381;-87
2023/05/12 09:22:30;;;;;;;;;;;;;;;16.27;nan;100363.06;4988787;28;19967;-88
2023/05/12 09:24:55;;;;;;;;;;;;;;;16.46;nan;100366.91;4992771;28;19953;-88
2023/05/12 09:27:26;;;;;;;;;;;;;;;16.52;nan;100366.13;4994527;28;19921;-88
2023/05/12 09:29:51;;;;;;;;;;;;;;;16.31;nan;100363.50;4983184;28;19922;-88
2023/05/12 09:32:16;;;;;;;;;;;;;;;16.16;nan;100365.41;4994752;28;19918;-88
2023/05/12 09:34:42;;;;;;;;;;;;;;;16.09;nan;100360.06;4990960;28;19922;-88
2023/05/12 09:37:07;;;;;;;;;;;;;;;15.91;nan;100361.31;4992441;28;19932;-88
2023/05/12 09:39:33;;;;;;;;;;;;;;;15.82;nan;100353.63;4989747;28;19945;-87
2023/05/12 09:41:58;;;;;;;;;;;;;;;15.75;nan;100356.22;4994405;28;19922;-87
2023/05/12 09:44:24;;;;;;;;;;;;;;;15.70;nan;100363.97;4991306;28;19921;-87
2023/05/12 09:46:50;;;;;;;;;;;;;;;15.55;nan;100360.50;4993122;28;19917;-87
2023/05/12 09:49:19;;;;;;;;;;;;;;;15.40;nan;100356.03;4991151;28;19917;-88
2023/05/12 09:51:44;;;;;;;;;;;;;;;15.35;nan;100357.59;4990279;28;19987;-87
2023/05/12 09:54:10;;;;;;;;;;;;;;;15.31;nan;100364.34;4987688;28;19929;-87
2023/05/12 09:56:36;;;;;;;;;;;;;;;15.32;nan;100360.63;4985906;28;19976;-88
2023/05/12 09:59:02;;;;;;;;;;;;;;;15.39;nan;100358.88;4987714;28;20405;-90
2023/05/12 10:01:28;;;;;;;;;;;;;;;15.44;nan;100359.13;4990413;28;19929;-88
2023/05/12 10:03:55;;;;;;;;;;;;;;;15.59;nan;100357.28;4989417;28;20377;-88
2023/05/12 10:06:28;;;;;;;;;;;;;;;15.68;nan;100361.47;4987679;28;19921;-88
2023/05/12 10:09:03;;;;;;;;;;;;;;;15.95;nan;100358.28;4987975;28;19937;-88
2023/05/12 10:11:30;;;;;;;;;;;;;;;16.13;nan;100358.63;4981942;28;20381;-88
2023/05/12 10:14:02;;;;;;;;;;;;;;;16.40;nan;100362.34;4977063;28;20477;-89
2023/05/12 10:16:30;;;;;;;;;;;;;;;16.55;nan;100362.25;4991615;28;19930;-88
2023/05/12 10:18:55;;;;;;;;;;;;;;;16.41;nan;100361.31;4989561;28;20281;-89
2023/05/12 10:21:22;;;;;;;;;;;;;;;16.49;nan;100355.00;4988750;28;19926;-88
2023/05/12 10:23:48;;;;;;;;;;;;;;;16.53;nan;100359.75;4990940;28;20217;-87
2023/05/12 10:26:13;;;;;;;;;;;;;;;16.79;nan;100363.66;4988599;28;19926;-87
2023/05/12 10:28:39;;;;;;;;;;;;;;;16.80;nan;100361.81;4988882;28;19957;-89
2023/05/12 10:31:06;;;;;;;;;;;;;;;16.91;nan;100358.59;4984936;28;19929;-89
2023/05/12 10:33:32;;;;;;;;;;;;;;;16.74;nan;100358.88;4989315;28;19929;-88
2023/05/12 10:35:57;;;;;;;;;;;;;;;16.74;nan;100356.19;4987387;28;19929;-88
2023/05/12 10:38:23;;;;;;;;;;;;;;;16.67;nan;100351.84;4987181;28;19929;-88
2023/05/12 10:40:50;;;;;;;;;;;;;;;16.55;nan;100356.91;4988517;28;20336;-91
2023/05/12 10:43:26;;;;;;;;;;;;;;;16.29;nan;100350.34;4999806;23;19934;-87
2023/05/12 10:46:20;;;;;;;;;;;;;;;16.16;nan;100349.41;4967760;28;19922;-87
2023/05/12 10:48:52;;;;;;;;;;;;;;;16.04;nan;100346.44;4967922;28;19930;-89
2023/05/12 10:51:18;;;;;;;;;;;;;;;15.99;nan;100357.69;4967982;28;19922;-90
2023/05/12 10:53:46;;;;;;;;;;;;;;;15.94;nan;100352.09;4966538;28;19922;-88
2023/05/12 10:56:11;;;;;;;;;;;;;;;15.84;nan;100356.94;4968166;28;19926;-88
2023/05/12 10:58:37;;;;;;;;;;;;;;;15.82;nan;100353.63;4983727;28;20420;-88
2023/05/12 11:01:04;;;;;;;;;;;;;;;15.98;nan;100349.88;4987516;28;19955;-88
2023/05/12 11:03:29;;;;;;;;;;;;;;;16.08;nan;100345.03;4970588;28;19922;-89
2023/05/12 11:05:59;;;;;;;;;;;;;;;16.23;nan;100350.28;4970245;28;20382;-88
2023/05/12 11:08:33;;;;;;;;;;;;;;;16.34;nan;100352.44;4968768;28;19922;-87
2023/05/12 11:10:59;;;;;;;;;;;;;;;16.70;nan;100338.91;4984950;28;19976;-87
2023/05/12 11:13:24;;;;;;;;;;;;;;;17.09;nan;100342.00;4970337;28;19932;-88
2023/05/12 11:15:50;;;;;;;;;;;;;;;17.36;nan;100341.09;4969096;28;20004;-88
2023/05/12 11:18:22;;;;;;;;;;;;;;;17.46;nan;100348.75;4968441;28;20330;-88
2023/05/12 11:20:47;;;;;;;;;;;;;;;17.77;nan;100347.38;4969270;28;19925;-88
2023/05/12 11:23:23;;;;;;;;;;;;;;;18.37;nan;100344.75;4968864;28;19948;-87
2023/05/12 11:25:52;;;;;;;;;;;;;;;18.86;nan;100346.97;4971161;28;19976;-87
2023/05/12 11:28:17;;;;;;;;;;;;;;;18.82;nan;100340.38;4973615;28;19922;-89
2023/05/12 11:30:52;;;;;;;;;;;;;;;18.94;nan;100337.03;4974769;28;20002;-88
2023/05/12 11:33:21;;;;;;;;;;;;;;;19.65;nan;100344.94;4972451;28;19922;-87
2023/05/12 11:35:46;;;;;;;;;;;;;;;20.02;nan;100347.00;4991041;28;20385;-88
2023/05/12 11:38:16;;;;;;;;;;;;;;;20.11;nan;100351.88;4976333;28;20052;-89
2023/05/12 11:40:41;;;;;;;;;;;;;;;19.89;nan;100353.28;5000303;28;19933;-88
2023/05/12 11:43:10;;;;;;;;;;;;;;;19.48;nan;100350.00;4974105;28;19938;-89
2023/05/12 11:45:36;;;;;;;;;;;;;;;19.33;nan;100351.31;4985418;28;19922;-87
2023/05/12 11:48:06;;;;;;;;;;;;;;;19.12;nan;100342.53;5007053;28;19968;-87
2023/05/12 11:50:31;;;;;;;;;;;;;;;18.99;nan;100347.94;4999393;23;19926;-86
2023/05/12 11:52:56;;;;;;;;;;;;;;;18.65;nan;100360.56;4996107;28;19975;-87
2023/05/12 11:55:23;;;;;;;;;;;;;;;18.30;nan;100355.44;5002923;28;19929;-88
2023/05/12 11:57:56;;;;;;;;;;;;;;;18.29;nan;100358.34;5012892;28;19964;-87
2023/05/12 12:00:26;;;;;;;;;;;;;;;18.34;nan;100358.56;4992327;28;19921;-89
2023/05/12 12:02:51;;;;;;;;;;;;;;;18.50;nan;100368.03;4993573;28;20060;-85
2023/05/12 12:05:20;;;;;;;;;;;;;;;18.42;nan;100372.56;4982995;28;19980;-86
2023/05/12 12:07:45;;;;;;;;;;;;;;;18.20;nan;100371.94;5011688;28;19979;-87
2023/05/12 12:10:11;;;;;;;;;;;;;;;17.57;nan;100369.56;4993213;28;20004;-87
2023/05/12 12:12:36;;;;;;;;;;;;;;;17.79;nan;100380.09;4997619;28;20342;-88
2023/05/12 12:15:02;;;;;;;;;;;;;;;17.81;nan;100378.88;4993295;28;19927;-87
2023/05/12 12:17:30;;;;;;;;;;;;;;;17.92;nan;100379.31;4989846;28;20376;-88
2023/05/12 12:19:55;;;;;;;;;;;;;;;17.90;nan;100376.88;4992379;28;19980;-88
2023/05/12 12:22:22;;;;;;;;;;;;;;;17.93;nan;100381.78;4986459;28;19942;-87
2023/05/12 12:24:47;;;;;;;;;;;;;;;17.84;nan;100385.69;4993715;28;19925;-88
2023/05/12 12:27:12;;;;;;;;;;;;;;;17.74;nan;100387.91;4994331;28;19964;-88
2023/05/12 12:29:38;;;;;;;;;;;;;;;17.74;nan;100394.06;5003222;28;20334;-88
2023/05/12 12:32:03;;;;;;;;;;;;;;;17.43;nan;100389.25;4984991;28;19917;-87
2023/05/12 12:34:29;;;;;;;;;;;;;;;17.35;nan;100403.63;4984450;28;20043;-88
2023/05/12 12:36:54;;;;;;;;;;;;;;;17.12;nan;100403.09;4969568;28;19977;-90
2023/05/12 12:39:22;;;;;;;;;;;;;;;16.84;nan;100398.59;4980297;28;20341;-88
2023/05/12 12:41:47;;;;;;;;;;;;;;;16.87;nan;100400.06;4982226;28;19953;-90
2023/05/12 12:44:12;;;;;;;;;;;;;;;16.90;nan;100405.00;4986052;28;19921;-88
2023/05/12 12:49:14;;;;;;;;;;;;;;;16.85;nan;100397.59;5010988;28;19925;-88
2023/05/12 12:51:42;;;;;;;;;;;;;;;16.95;nan;100405.25;4992278;28;19929;-88
2023/05/12 12:54:07;;;;;;;;;;;;;;;16.82;nan;100405.16;4998124;28;19926;-89
2023/05/12 12:56:32;;;;;;;;;;;;;;;16.80;nan;100401.88;4996679;28;19928;-90
2023/05/12 13:04:06;;;;;;;;;;;;;;;16.42;nan;100399.50;4992126;28;19930;-88
2023/05/12 13:06:32;;;;;;;;;;;;;;;16.26;nan;100401.44;4974830;28;19944;-88